Time;durP1;ratioP1;P1;durP2;ratioP2;P2;SDS_P1;SDS_P2;PMS_P1;PMS_P2;Temp;Humidity;BMP_temperature;BMP_pressure;BME280_temperature;BME280_humidity;BME280_pressure;Samples;Min_cycle;Max_cycle;Signal;HPM_P1;HPM_P2
2022/11/06 00:02:13;;;;;;;11.02;5.07;;;;;;;10.38;100.00;101169.78;5012277;28;20129;-58
2022/11/06 00:04:39;;;;;;;16.73;5.43;;;;;;;10.29;100.00;101155.09;5013244;28;20042;-53
2022/11/06 00:07:04;;;;;;;14.05;5.43;;;;;;;10.37;100.00;101161.03;5013326;28;20034;-55
2022/11/06 00:09:29;;;;;;;10.65;5.10;;;;;;;10.07;100.00;101099.50;5013456;28;20034;-56
2022/11/06 00:11:55;;;;;;;12.25;5.22;;;;;;;10.34;100.00;101142.69;5013578;28;20037;-56
2022/11/06 00:14:20;;;;;;;8.45;4.53;;;;;;;10.30;100.00;101143.69;5013186;28;20041;-56
2022/11/06 00:16:46;;;;;;;9.88;4.97;;;;;;;10.33;100.00;101135.72;5011728;28;20037;-54
2022/11/06 00:19:12;;;;;;;11.93;6.03;;;;;;;10.07;100.00;101080.22;4995751;28;20042;-54
2022/11/06 00:21:37;;;;;;;14.93;5.82;;;;;;;10.32;100.00;101126.06;5013368;28;20034;-56
2022/11/06 00:24:05;;;;;;;14.27;5.30;;;;;;;10.00;100.00;101079.56;5013284;28;20370;-52
2022/11/06 00:26:30;;;;;;;9.93;5.07;;;;;;;10.34;100.00;101131.28;5011930;28;20030;-51
2022/11/06 00:28:56;;;;;;;12.48;5.00;;;;;;;10.33;100.00;101122.56;5011760;28;20048;-55
2022/11/06 00:31:27;;;;;;;9.55;4.72;;;;;;;10.42;100.00;101137.22;5013223;28;20137;-55
2022/11/06 00:33:55;;;;;;;8.63;5.18;;;;;;;10.44;100.00;101145.94;5013147;28;20026;-58
2022/11/06 00:36:22;;;;;;;8.88;5.03;;;;;;;10.46;100.00;101130.97;5013012;28;20036;-53
2022/11/06 00:38:51;;;;;;;8.00;5.20;;;;;;;10.30;100.00;101111.25;5012935;28;20026;-55
2022/11/06 00:41:17;;;;;;;10.18;5.90;;;;;;;10.43;100.00;101129.28;5012798;28;20041;-56
2022/11/06 00:43:50;;;;;;;12.80;5.28;;;;;;;10.39;100.00;101125.00;5011734;28;20038;-57
2022/11/06 00:46:16;;;;;;;11.05;5.05;;;;;;;10.30;100.00;101121.75;5011504;28;20049;-56
2022/11/06 00:48:42;;;;;;;11.82;5.20;;;;;;;10.27;100.00;101132.38;5012755;28;20034;-55
2022/11/06 00:51:10;;;;;;;9.30;5.63;;;;;;;10.28;100.00;101120.91;5013152;28;20244;-56
2022/11/06 00:53:36;;;;;;;8.38;5.13;;;;;;;10.01;100.00;101083.88;5012767;28;20124;-56
2022/11/06 00:56:06;;;;;;;9.85;5.53;;;;;;;9.89;100.00;101060.56;5012499;28;20033;-55
2022/11/06 00:58:31;;;;;;;11.25;5.03;;;;;;;10.26;100.00;101120.09;5011357;28;20069;-55
2022/11/06 01:01:04;;;;;;;12.70;5.97;;;;;;;10.23;100.00;101121.06;5011175;28;20050;-57
2022/11/06 01:03:30;;;;;;;12.57;6.13;;;;;;;10.19;100.00;101113.31;5011823;28;20491;-56
2022/11/06 01:06:03;;;;;;;11.98;5.82;;;;;;;9.89;100.00;101072.84;5011309;28;20050;-58
2022/11/06 01:08:28;;;;;;;13.15;5.93;;;;;;;10.14;100.00;101118.66;5012408;28;20057;-56
2022/11/06 01:10:53;;;;;;;15.82;7.57;;;;;;;10.04;100.00;101112.72;5011459;28;20084;-57
2022/11/06 01:13:19;;;;;;;14.15;6.28;;;;;;;10.00;100.00;101099.72;5012579;28;20030;-57
2022/11/06 01:15:44;;;;;;;11.93;6.70;;;;;;;9.75;100.00;101059.19;5012389;28;20037;-55
2022/11/06 01:18:09;;;;;;;11.35;6.72;;;;;;;10.03;100.00;101113.66;5012519;28;20045;-57
2022/11/06 01:20:36;;;;;;;9.80;6.20;;;;;;;10.04;100.00;101119.78;5012354;28;20085;-51
2022/11/06 01:23:01;;;;;;;12.75;7.15;;;;;;;9.94;100.00;101094.63;5012374;28;20076;-56
2022/11/06 01:25:26;;;;;;;14.27;6.35;;;;;;;9.97;100.00;101099.78;5011241;28;20442;-57
2022/11/06 01:27:52;;;;;;;13.27;6.40;;;;;;;9.68;100.00;101037.44;4994904;28;20061;-56
2022/11/06 01:30:17;;;;;;;15.50;7.03;;;;;;;9.93;100.00;101090.25;5012382;28;20401;-58
2022/11/06 01:32:42;;;;;;;12.27;7.10;;;;;;;9.90;100.00;101096.44;5012318;28;20426;-57
2022/11/06 01:35:08;;;;;;;14.13;6.85;;;;;;;9.79;100.00;101085.34;5012147;28;20029;-60
2022/11/06 01:37:33;;;;;;;14.05;7.03;;;;;;;9.82;100.00;101103.69;4994650;28;20034;-57
2022/11/06 01:39:58;;;;;;;14.07;7.03;;;;;;;9.44;100.00;101025.78;5010647;28;20122;-55
2022/11/06 01:42:24;;;;;;;13.95;6.78;;;;;;;9.89;100.00;101092.13;5012313;28;20049;-54
2022/11/06 01:45:19;;;;;;;15.70;7.47;;;;;;;9.77;100.00;101079.28;5012301;28;20449;-58
2022/11/06 01:47:45;;;;;;;17.55;7.30;;;;;;;9.80;100.00;101078.34;5011050;28;20096;-54
2022/11/06 01:50:11;;;;;;;14.90;6.65;;;;;;;9.86;100.00;101089.56;5010914;28;20409;-59
2022/11/06 01:52:37;;;;;;;14.15;6.80;;;;;;;9.55;100.00;101031.63;5010898;28;20034;-60
2022/11/06 01:55:09;;;;;;;14.65;7.78;;;;;;;9.83;100.00;101100.16;5010979;28;20034;-59
2022/11/06 01:57:35;;;;;;;13.85;6.82;;;;;;;9.83;100.00;101080.88;5012090;28;20045;-58
2022/11/06 02:00:00;;;;;;;13.57;7.07;;;;;;;9.84;100.00;101079.97;5011854;28;20042;-56
2022/11/06 02:02:26;;;;;;;18.42;7.43;;;;;;;9.51;100.00;101037.88;5012084;28;20413;-58
2022/11/06 02:04:51;;;;;;;12.95;7.50;;;;;;;9.80;100.00;101084.47;5011954;28;20049;-60
2022/11/06 02:07:17;;;;;;;13.65;7.72;;;;;;;9.45;100.00;101032.78;5012211;28;20121;-58
2022/11/06 02:09:43;;;;;;;16.23;7.00;;;;;;;9.79;100.00;101068.72;5010971;28;20040;-53
2022/11/06 02:12:23;;;;;;;12.63;6.97;;;;;;;9.85;100.00;101076.44;5010787;28;20029;-58
2022/11/06 02:14:55;;;;;;;13.45;6.95;;;;;;;9.84;100.00;101072.06;5011973;28;20036;-57
2022/11/06 02:17:30;;;;;;;14.25;7.40;;;;;;;9.81;100.00;101075.66;5011733;28;20100;-58
2022/11/06 02:20:28;;;;;;;12.32;7.63;;;;;;;9.78;100.00;101080.16;5012102;28;20132;-53
2022/11/06 02:23:25;;;;;;;18.52;8.70;;;;;;;9.76;100.00;101061.78;5003693;28;20044;-55
2022/11/06 02:25:53;;;;;;;15.13;7.65;;;;;;;9.78;100.00;101059.13;5007610;28;20038;-58
2022/11/06 02:28:29;;;;;;;14.23;8.25;;;;;;;9.78;100.00;101072.25;5012214;28;20393;-58
2022/11/06 02:30:55;;;;;;;16.52;8.18;;;;;;;9.76;100.00;101056.50;5030713;28;20042;-59
2022/11/06 02:33:29;;;;;;;15.55;8.80;;;;;;;9.47;100.00;101011.72;5014131;28;20033;-54
2022/11/06 02:36:00;;;;;;;18.33;9.07;;;;;;;9.74;100.00;101046.94;5015121;28;20026;-52
2022/11/06 02:38:33;;;;;;;17.80;8.48;;;;;;;9.80;100.00;101054.66;5014304;28;20040;-54
2022/11/06 02:41:02;;;;;;;15.23;9.10;;;;;;;9.51;100.00;101008.13;5014089;28;20033;-59
2022/11/06 02:43:36;;;;;;;17.70;9.43;;;;;;;9.52;100.00;101008.06;4997768;28;20113;-58
2022/11/06 02:46:05;;;;;;;25.40;11.00;;;;;;;9.77;100.00;101041.59;5013896;28;20030;-57
2022/11/06 02:48:36;;;;;;;15.88;10.15;;;;;;;9.68;100.00;101024.31;5014948;28;20040;-58
2022/11/06 02:51:03;;;;;;;18.60;9.75;;;;;;;9.59;100.00;101009.63;4997495;28;20033;-56
2022/11/06 02:53:29;;;;;;;18.48;10.90;;;;;;;9.84;100.00;101043.16;5015055;28;20034;-55
2022/11/06 02:55:57;;;;;;;22.27;10.35;;;;;;;9.53;100.00;100974.75;5013554;28;20543;-56
2022/11/06 02:58:28;;;;;;;15.25;10.80;;;;;;;9.79;100.00;101042.41;5013681;28;20149;-52
2022/11/06 03:01:10;;;;;;;15.45;10.43;;;;;;;9.83;100.00;101047.56;5013273;28;20092;-56
2022/11/06 03:03:40;;;;;;;20.08;10.27;;;;;;;9.55;100.00;101009.75;5030203;28;20050;-54
2022/11/06 03:06:12;;;;;;;18.15;12.15;;;;;;;9.83;100.00;101051.97;5013527;28;20091;-61
2022/11/06 03:08:57;;;;;;;21.23;11.27;;;;;;;9.75;100.00;101025.03;5014226;28;20029;-60
2022/11/06 03:11:26;;;;;;;26.15;11.85;;;;;;;9.82;100.00;101037.09;5014443;28;20026;-58
2022/11/06 03:14:18;;;;;;;22.73;12.50;;;;;;;9.78;100.00;101031.03;5012830;28;20030;-54
2022/11/06 03:16:55;;;;;;;18.77;11.30;;;;;;;9.87;100.00;101038.69;5014301;28;20084;-57
2022/11/06 03:19:28;;;;;;;18.73;11.15;;;;;;;9.87;100.00;101029.94;5013113;28;20065;-59
2022/11/06 03:22:08;;;;;;;22.33;11.90;;;;;;;9.86;100.00;101029.09;5014143;28;20068;-53
2022/11/06 03:24:45;;;;;;;18.13;12.35;;;;;;;9.77;100.00;101017.94;5013975;28;20034;-53
2022/11/06 03:27:17;;;;;;;18.42;11.02;;;;;;;9.85;100.00;101014.22;5014087;28;20038;-53
2022/11/06 03:29:48;;;;;;;23.08;11.63;;;;;;;9.84;100.00;101022.13;5012708;28;20034;-53
2022/11/06 03:32:17;;;;;;;17.00;11.75;;;;;;;9.92;100.00;101035.97;5012686;28;20034;-54
2022/11/06 03:35:08;;;;;;;20.52;12.38;;;;;;;9.92;100.00;101007.91;5013014;28;20026;-56
2022/11/06 03:37:37;;;;;;;16.85;11.20;;;;;;;9.92;100.00;101005.28;5008619;28;20042;-53
2022/11/06 03:40:07;;;;;;;18.17;12.35;;;;;;;9.90;100.00;100996.53;5012952;28;20440;-52
2022/11/06 03:42:34;;;;;;;23.33;12.73;;;;;;;9.89;100.00;101005.34;5013810;28;20080;-54
2022/11/06 03:45:04;;;;;;;17.85;12.73;;;;;;;9.63;100.00;100954.38;5014039;28;20018;-51
2022/11/06 03:47:32;;;;;;;16.90;12.38;;;;;;;9.85;100.00;100968.66;5012517;28;20046;-53
2022/11/06 03:50:30;;;;;;;23.10;13.85;;;;;;;9.58;100.00;100930.81;5012818;28;20034;-53
2022/11/06 03:53:04;;;;;;;22.17;13.23;;;;;;;9.72;100.00;100954.97;5013807;28;20039;-52
2022/11/06 03:55:35;;;;;;;24.80;14.43;;;;;;;9.74;100.00;100949.69;5013520;28;20041;-51
2022/11/06 03:58:04;;;;;;;16.98;14.18;;;;;;;9.97;100.00;100981.47;5013785;28;20034;-52
2022/11/06 04:00:30;;;;;;;22.88;14.13;;;;;;;9.72;100.00;100938.34;5012550;28;20026;-52
2022/11/06 04:03:08;;;;;;;19.42;13.95;;;;;;;9.98;100.00;100976.16;5012383;28;20033;-55
2022/11/06 04:05:37;;;;;;;22.45;14.50;;;;;;;9.88;100.00;100969.44;5013371;28;20026;-51
2022/11/06 04:13:56;;;;;;;19.08;13.30;;;;;;;9.73;100.00;100917.28;5012448;28;20041;-56
2022/11/06 04:16:27;;;;;;;17.08;12.98;;;;;;;9.72;100.00;100907.66;5013023;28;20037;-54
2022/11/06 04:18:52;;;;;;;19.77;12.48;;;;;;;9.99;100.00;100959.47;5012207;28;20030;-55
2022/11/06 04:21:42;;;;;;;23.02;12.63;;;;;;;10.03;100.00;100966.38;5013568;28;20057;-54
2022/11/06 04:27:27;;;;;;;19.58;12.05;;;;;;;10.06;100.00;100950.53;5013531;28;20048;-53
2022/11/06 04:30:16;;;;;;;19.30;11.02;;;;;;;10.08;100.00;100948.69;5013025;28;20030;-56
2022/11/06 04:32:57;;;;;;;18.08;10.82;;;;;;;10.07;100.00;100960.13;5012772;28;20022;-59
2022/11/06 04:35:30;;;;;;;15.07;10.30;;;;;;;10.10;100.00;100952.13;5013027;28;20025;-57
2022/11/06 04:38:02;;;;;;;23.65;11.13;;;;;;;10.13;100.00;100953.84;5011570;28;20640;-57
2022/11/06 04:40:39;;;;;;;17.40;10.15;;;;;;;10.14;100.00;100958.22;5011756;28;20030;-53
2022/11/06 04:43:08;;;;;;;18.13;11.10;;;;;;;10.10;100.00;100928.47;5012861;28;20099;-57
2022/11/06 04:45:40;;;;;;;14.95;10.50;;;;;;;10.10;100.00;100949.50;5011823;28;20038;-59
2022/11/06 04:48:06;;;;;;;16.60;9.63;;;;;;;10.10;100.00;100939.00;5012940;28;20084;-61
2022/11/06 04:50:37;;;;;;;18.05;10.57;;;;;;;10.09;100.00;100932.03;5011630;28;20034;-59
2022/11/06 04:53:02;;;;;;;;;;;;;;;10.08;100.00;100935.56;5011990;28;20064;-59
2022/11/06 04:55:28;;;;;;;17.13;9.77;;;;;;;9.77;100.00;100881.25;4994933;28;19909;-60
2022/11/06 04:57:53;;;;;;;19.27;10.55;;;;;;;9.76;100.00;100890.91;5011370;28;20296;-60
2022/11/06 05:00:19;;;;;;;16.05;9.85;;;;;;;10.04;100.00;100952.31;5012880;28;20033;-60
2022/11/06 05:02:44;;;;;;;15.48;9.25;;;;;;;10.00;100.00;100941.94;5015610;28;20425;-59
2022/11/06 05:05:10;;;;;;;14.63;9.55;;;;;;;10.01;100.00;100923.47;5025061;28;20472;-60
2022/11/06 05:07:35;;;;;;;13.52;8.88;;;;;;;9.68;100.00;100874.50;5022924;28;20037;-60
2022/11/06 05:10:01;;;;;;;13.68;9.20;;;;;;;9.96;100.00;100925.38;5017463;28;20121;-61
2022/11/06 05:12:26;;;;;;;17.40;8.10;;;;;;;10.00;100.00;100921.75;5010838;28;20077;-59
2022/11/06 05:14:51;;;;;;;16.45;8.15;;;;;;;10.01;100.00;100917.38;5027953;28;20132;-60
2022/11/06 05:17:16;;;;;;;15.15;7.75;;;;;;;9.69;100.00;100857.78;5012404;28;20041;-59
2022/11/06 05:19:42;;;;;;;14.00;8.10;;;;;;;9.93;100.00;100900.94;5012390;28;20404;-59
2022/11/06 05:24:52;;;;;;;16.20;8.15;;;;;;;9.91;100.00;100889.59;5025547;28;20048;-59
2022/11/06 05:27:17;;;;;;;16.58;8.25;;;;;;;9.92;100.00;100886.06;5012560;28;20034;-59
2022/11/06 05:29:43;;;;;;;10.05;8.05;;;;;;;9.94;100.00;100900.03;5012304;28;20030;-60
2022/11/06 05:32:08;;;;;;;12.77;8.20;;;;;;;9.66;100.00;100841.28;5012338;28;20049;-61
2022/11/06 05:34:34;;;;;;;11.85;8.10;;;;;;;9.63;100.00;100823.84;5012229;28;20064;-59
2022/11/06 05:36:59;;;;;;;15.88;7.80;;;;;;;9.89;100.00;100873.88;5012253;28;20485;-61
2022/11/06 05:39:24;;;;;;;11.82;6.78;;;;;;;9.64;100.00;100833.41;5011727;28;20030;-60
2022/11/06 05:41:50;;;;;;;12.98;6.95;;;;;;;9.96;100.00;100887.69;4994672;28;20049;-58
2022/11/06 05:44:15;;;;;;;12.10;7.35;;;;;;;9.94;100.00;100893.00;5012124;28;20128;-58
2022/11/06 05:46:40;;;;;;;13.60;7.30;;;;;;;9.91;100.00;100887.84;5011769;28;20037;-59
2022/11/06 05:49:06;;;;;;;14.77;6.82;;;;;;;9.57;100.00;100818.75;5012259;28;20049;-58
2022/11/06 05:51:31;;;;;;;16.05;6.95;;;;;;;9.31;100.00;100769.53;5012621;28;20034;-58
2022/11/06 05:53:56;;;;;;;13.35;7.55;;;;;;;9.56;100.00;100810.00;5011879;28;20030;-58
2022/11/06 05:56:22;;;;;;;12.38;7.35;;;;;;;9.63;100.00;100826.47;5027316;28;20037;-58
2022/11/06 05:58:47;;;;;;;10.95;7.72;;;;;;;9.58;100.00;100818.69;5011993;28;20389;-59
2022/11/06 06:01:12;;;;;;;8.45;6.53;;;;;;;9.90;100.00;100859.81;5012095;28;20056;-57
2022/11/06 06:03:38;;;;;;;9.18;6.97;;;;;;;9.89;100.00;100863.38;5013277;28;20121;-58
2022/11/06 06:06:03;;;;;;;9.73;6.45;;;;;;;9.92;100.00;100863.28;5031090;28;20486;-57
2022/11/06 06:08:28;;;;;;;11.15;7.07;;;;;;;9.91;100.00;100868.56;5015715;28;20466;-58
2022/11/06 06:10:54;;;;;;;12.82;7.43;;;;;;;9.96;100.00;100864.03;5015747;28;20038;-56
2022/11/06 06:13:19;;;;;;;9.73;6.13;;;;;;;9.93;100.00;100853.59;5015757;28;20037;-57
2022/11/06 06:15:45;;;;;;;13.18;6.88;;;;;;;9.65;100.00;100801.00;5014136;28;20037;-58
2022/11/06 06:18:10;;;;;;;12.73;6.03;;;;;;;9.67;100.00;100809.69;5015571;28;20041;-59
2022/11/06 06:20:36;;;;;;;10.95;6.60;;;;;;;9.99;100.00;100849.03;5015576;28;20037;-54
2022/11/06 06:23:01;;;;;;;11.38;5.95;;;;;;;9.92;100.00;100837.00;5013917;28;20033;-57
2022/11/06 06:25:27;;;;;;;9.05;5.70;;;;;;;9.63;100.00;100790.50;5015604;28;20080;-59
2022/11/06 06:27:53;;;;;;;7.43;6.05;;;;;;;9.98;100.00;100841.19;5014252;28;20065;-54
2022/11/06 06:30:19;;;;;;;10.00;5.45;;;;;;;9.94;100.00;100848.31;5015488;28;20068;-54
2022/11/06 06:32:45;;;;;;;13.30;6.15;;;;;;;9.62;100.00;100801.06;5015360;28;20038;-55
2022/11/06 06:35:10;;;;;;;10.60;5.72;;;;;;;9.94;100.00;100857.97;5013957;28;20025;-53
2022/11/06 06:37:35;;;;;;;11.00;5.80;;;;;;;9.97;100.00;100847.34;5029926;28;20038;-55
2022/11/06 06:40:01;;;;;;;8.10;5.00;;;;;;;9.43;100.00;100766.56;5015339;28;20042;-54
2022/11/06 06:42:29;;;;;;;11.00;5.38;;;;;;;10.00;100.00;100850.75;5015263;28;20042;-58
2022/11/06 06:44:55;;;;;;;9.88;4.80;;;;;;;9.71;100.00;100792.94;5030483;28;20040;-56
2022/11/06 06:47:20;;;;;;;9.18;5.15;;;;;;;9.77;100.00;100797.13;5013638;28;20082;-57
2022/11/06 06:49:46;;;;;;;15.45;5.25;;;;;;;9.61;100.00;100767.81;5013967;28;20030;-57
2022/11/06 06:52:11;;;;;;;9.77;4.72;;;;;;;9.63;100.00;100776.53;5013692;28;20034;-57
2022/11/06 06:54:36;;;;;;;12.27;4.93;;;;;;;9.68;100.00;100789.53;5015016;28;20053;-57
2022/11/06 06:57:02;;;;;;;12.02;5.85;;;;;;;9.94;100.00;100831.66;5013704;28;20042;-57
2022/11/06 06:59:28;;;;;;;12.30;4.63;;;;;;;9.93;100.00;100830.81;5013741;28;20117;-55
2022/11/06 07:01:54;;;;;;;11.07;5.28;;;;;;;9.88;100.00;100824.81;5014684;28;20050;-58
2022/11/06 07:04:19;;;;;;;9.15;4.60;;;;;;;10.00;100.00;100824.47;5014714;28;20116;-55
2022/11/06 07:06:44;;;;;;;9.90;4.45;;;;;;;9.78;100.00;100768.16;5014569;28;20040;-56
2022/11/06 07:09:10;;;;;;;15.60;4.50;;;;;;;10.07;100.00;100818.09;5014846;28;20381;-56
2022/11/06 07:11:35;;;;;;;7.50;4.05;;;;;;;10.13;100.00;100817.94;5014712;28;20038;-55
2022/11/06 07:14:00;;;;;;;7.95;3.75;;;;;;;10.14;100.00;100819.69;5014035;28;20049;-55
2022/11/06 07:16:26;;;;;;;10.13;3.70;;;;;;;10.15;100.00;100821.41;5014460;28;20050;-53
2022/11/06 07:18:51;;;;;;;7.35;3.50;;;;;;;10.19;100.00;100809.00;5014478;28;20049;-58
2022/11/06 07:21:17;;;;;;;12.60;4.57;;;;;;;10.16;100.00;100804.69;5014307;28;20030;-54
2022/11/06 07:23:42;;;;;;;8.82;3.78;;;;;;;9.92;100.00;100773.88;5014412;28;20034;-54
2022/11/06 07:26:08;;;;;;;7.20;3.25;;;;;;;10.05;100.00;100791.00;5014389;28;20117;-57
2022/11/06 07:28:33;;;;;;;11.05;3.78;;;;;;;10.29;100.00;100820.09;5014210;28;20036;-57
2022/11/06 07:31:00;;;;;;;9.30;4.18;;;;;;;10.03;100.00;100763.03;5014097;28;20117;-57
2022/11/06 07:33:25;;;;;;;13.38;3.80;;;;;;;10.29;100.00;100810.44;5014147;28;20124;-57
2022/11/06 07:35:51;;;;;;;12.50;3.70;;;;;;;10.12;100.00;100768.00;5029111;28;20602;-58
2022/11/06 07:38:16;;;;;;;10.30;3.70;;;;;;;10.22;100.00;100769.44;5013885;28;20044;-55
2022/11/06 07:40:41;;;;;;;8.13;3.20;;;;;;;10.22;100.00;100756.28;5014168;28;20038;-55
2022/11/06 07:43:08;;;;;;;9.93;3.95;;;;;;;10.23;100.00;100759.78;5013911;28;20038;-56
2022/11/06 07:45:34;;;;;;;8.30;3.03;;;;;;;10.21;100.00;100759.84;5012308;28;20453;-56
2022/11/06 07:48:00;;;;;;;12.23;3.40;;;;;;;10.49;100.00;100796.63;5013937;28;20117;-56
2022/11/06 07:50:26;;;;;;;9.30;3.00;;;;;;;10.55;100.00;100804.34;5014325;28;20125;-57
2022/11/06 07:52:51;;;;;;;8.65;2.92;;;;;;;10.60;100.00;100821.69;5014031;28;20125;-54
2022/11/06 07:55:17;;;;;;;9.95;3.33;;;;;;;10.66;100.00;100818.00;5013969;28;20073;-56
2022/11/06 07:57:42;;;;;;;9.90;2.72;;;;;;;10.57;100.00;100829.69;5012482;28;20042;-55
2022/11/06 08:00:08;;;;;;;9.05;3.60;;;;;;;10.55;100.00;100834.16;5013911;28;20030;-55
2022/11/06 08:02:34;;;;;;;10.93;3.20;;;;;;;10.55;100.00;100828.88;5012219;28;20265;-57
2022/11/06 08:04:59;;;;;;;5.32;2.70;;;;;;;10.56;100.00;100827.13;5013494;28;20081;-54
2022/11/06 08:07:24;;;;;;;9.40;2.47;;;;;;;10.30;100.00;100783.25;5013566;28;20042;-54
2022/11/06 08:09:50;;;;;;;9.10;2.80;;;;;;;10.56;100.00;100825.34;5028803;28;20112;-55
2022/11/06 08:12:15;;;;;;;9.18;2.33;;;;;;;10.58;100.00;100822.66;5013281;28;20038;-53
2022/11/06 08:14:40;;;;;;;6.80;2.92;;;;;;;10.61;100.00;100817.31;5011708;28;20045;-52
2022/11/06 08:17:06;;;;;;;6.60;2.58;;;;;;;10.63;100.00;100815.47;5013141;28;20081;-55
2022/11/06 08:19:31;;;;;;;9.02;2.60;;;;;;;10.62;100.00;100808.50;5012040;28;20318;-56
2022/11/06 08:21:56;;;;;;;6.68;2.42;;;;;;;10.50;100.00;100804.50;5012812;28;20057;-54
2022/11/06 08:24:22;;;;;;;4.47;2.13;;;;;;;10.56;100.00;100809.56;5012017;28;20037;-55
2022/11/06 08:26:47;;;;;;;10.60;2.35;;;;;;;10.53;100.00;100814.94;5002646;28;20490;-56
2022/11/06 08:29:13;;;;;;;8.43;2.78;;;;;;;10.22;100.00;100753.66;5009744;28;20662;-56
2022/11/06 08:31:38;;;;;;;8.50;2.78;;;;;;;10.46;100.00;100807.25;5009025;28;20041;-57
2022/11/06 08:34:04;;;;;;;10.23;2.90;;;;;;;10.14;100.00;100760.94;4993457;28;20537;-55
2022/11/06 08:36:29;;;;;;;9.48;2.80;;;;;;;10.29;100.00;100770.13;4993337;28;20034;-56
2022/11/06 08:38:54;;;;;;;7.75;3.03;;;;;;;10.27;100.00;100766.69;4991536;28;20039;-58
2022/11/06 08:41:20;;;;;;;8.38;2.55;;;;;;;10.41;100.00;100782.88;4991497;28;20046;-53
2022/11/06 08:43:50;;;;;;;6.43;2.60;;;;;;;10.41;100.00;100782.88;4993347;28;20042;-56
2022/11/06 08:46:15;;;;;;;8.38;3.05;;;;;;;10.43;100.00;100776.66;4993203;28;20129;-57
2022/11/06 08:48:40;;;;;;;11.35;2.97;;;;;;;10.21;100.00;100716.91;4991936;28;20177;-55
2022/11/06 08:51:06;;;;;;;5.65;2.90;;;;;;;10.22;100.00;100708.94;4993353;28;20389;-56
2022/11/06 08:53:31;;;;;;;7.07;3.20;;;;;;;10.58;100.00;100757.72;5008289;28;20038;-56
2022/11/06 08:55:56;;;;;;;8.07;3.35;;;;;;;10.59;100.00;100755.97;4992970;28;20030;-55
2022/11/06 08:58:22;;;;;;;11.77;3.45;;;;;;;10.30;100.00;100701.69;4975359;28;20041;-53
2022/11/06 09:00:47;;;;;;;9.43;2.55;;;;;;;10.65;100.00;100756.59;4991614;28;20092;-54
2022/11/06 09:03:14;;;;;;;9.57;3.20;;;;;;;10.67;100.00;100739.00;4993058;28;20031;-51
2022/11/06 09:05:41;;;;;;;7.20;2.75;;;;;;;10.81;100.00;100748.16;4992916;28;20038;-54
2022/11/06 09:08:07;;;;;;;10.70;3.58;;;;;;;10.84;100.00;100738.41;4991563;28;20041;-56
2022/11/06 09:10:33;;;;;;;7.07;3.00;;;;;;;10.99;100.00;100742.28;4992899;28;20062;-51
2022/11/06 09:12:58;;;;;;;6.43;2.90;;;;;;;11.04;100.00;100749.09;4991691;28;20599;-54
2022/11/06 09:15:24;;;;;;;8.57;2.67;;;;;;;10.91;100.00;100704.81;4992699;28;20046;-55
2022/11/06 09:17:50;;;;;;;13.25;4.05;;;;;;;10.69;100.00;100660.81;4991506;28;20042;-55
2022/11/06 09:20:17;;;;;;;8.02;3.83;;;;;;;11.29;100.00;100738.53;4991528;28;20034;-56
2022/11/06 09:22:44;;;;;;;13.20;4.45;;;;;;;11.19;100.00;100710.78;4992565;28;20082;-59
2022/11/06 09:25:09;;;;;;;7.63;3.58;;;;;;;11.25;100.00;100719.34;4992839;28;20114;-57
2022/11/06 09:27:46;;;;;;;8.85;3.75;;;;;;;10.83;100.00;100644.50;4990904;28;20066;-54
2022/11/06 09:30:13;;;;;;;9.95;3.75;;;;;;;11.10;100.00;100695.31;4992657;28;20070;-52
2022/11/06 09:32:45;;;;;;;9.18;2.88;;;;;;;11.40;100.00;100752.16;4992656;28;20486;-53
2022/11/06 09:35:10;;;;;;;7.35;3.40;;;;;;;11.50;100.00;100739.53;4992928;28;20038;-55
2022/11/06 09:37:35;;;;;;;15.52;4.25;;;;;;;11.59;100.00;100721.56;4993540;28;20454;-58
2022/11/06 09:40:01;;;;;;;6.32;3.03;;;;;;;11.46;100.00;100678.16;4996622;28;20034;-59
2022/11/06 09:42:44;;;;;;;7.15;3.30;;;;;;;11.75;100.00;100712.19;4995463;28;20042;-58
2022/11/06 09:45:13;;;;;;;9.50;2.95;;;;;;;11.51;100.00;100670.91;4996419;28;20027;-59
2022/11/06 09:47:44;;;;;;;7.60;2.92;;;;;;;11.58;100.00;100671.53;4996632;28;20057;-61
2022/11/06 09:50:17;;;;;;;9.90;3.45;;;;;;;11.71;100.00;100705.28;4995464;28;20382;-60
2022/11/06 09:52:49;;;;;;;7.45;2.70;;;;;;;11.50;100.00;100674.44;4995359;28;20034;-57
2022/11/06 09:55:19;;;;;;;7.47;3.25;;;;;;;11.45;100.00;100655.34;4995253;28;20030;-58
2022/11/06 09:57:47;;;;;;;7.50;2.70;;;;;;;11.74;100.00;100706.94;4994812;28;20084;-57
2022/11/06 10:00:14;;;;;;;7.82;2.40;;;;;;;11.55;100.00;100669.03;4996295;28;20483;-59
2022/11/06 10:02:43;;;;;;;7.07;3.13;;;;;;;11.68;100.00;100681.66;4996140;28;20040;-58
2022/11/06 10:05:22;;;;;;;8.52;3.33;;;;;;;11.80;100.00;100714.63;4996170;28;20458;-51
2022/11/06 10:07:50;;;;;;;9.02;2.72;;;;;;;11.76;100.00;100703.34;4994777;28;20398;-55
2022/11/06 10:10:20;;;;;;;10.70;2.72;;;;;;;11.79;100.00;100719.03;4994938;28;20149;-57
2022/11/06 10:12:45;;;;;;;9.55;3.33;;;;;;;11.76;100.00;100723.59;4995782;28;20037;-57
2022/11/06 10:15:44;;;;;;;7.43;2.97;;;;;;;11.76;100.00;100703.34;4995809;28;20048;-58
2022/11/06 10:18:48;;;;;;;7.07;2.40;;;;;;;11.55;100.00;100653.22;4983460;28;20038;-53
2022/11/06 10:21:16;;;;;;;9.00;2.83;;;;;;;11.80;100.00;100693.53;4989424;28;20043;-53
2022/11/06 10:23:43;;;;;;;8.95;3.05;;;;;;;11.81;100.00;100687.34;4994896;28;20038;-56
2022/11/06 10:26:17;;;;;;;6.82;3.95;;;;;;;11.60;100.00;100657.38;4994465;28;20035;-55
2022/11/06 10:28:52;;;;;;;9.77;3.58;;;;;;;11.53;100.00;100636.59;4994446;28;20026;-56
2022/11/06 10:31:35;;;;;;;10.20;3.85;;;;;;;11.76;100.00;100671.69;4995802;28;20081;-56
2022/11/06 10:34:17;;;;;;;5.57;2.95;;;;;;;11.76;100.00;100673.50;4993414;28;20072;-56
2022/11/06 10:36:56;;;;;;;9.57;3.15;;;;;;;11.67;100.00;100692.28;4993899;28;20125;-54
2022/11/06 10:39:24;;;;;;;9.07;3.60;;;;;;;11.59;100.00;100673.22;4995562;28;20066;-56
2022/11/06 10:41:57;;;;;;;5.90;3.40;;;;;;;11.34;100.00;100622.41;4993282;28;20037;-59
2022/11/06 10:44:23;;;;;;;8.80;3.72;;;;;;;11.57;100.00;100660.13;4993008;28;20554;-59
2022/11/06 10:46:52;;;;;;;12.00;3.05;;;;;;;11.46;100.00;100646.53;4994150;28;20042;-57
2022/11/06 10:49:39;;;;;;;6.70;3.63;;;;;;;11.22;100.00;100600.91;4993495;28;20034;-58
2022/11/06 10:52:10;;;;;;;10.45;4.07;;;;;;;11.49;100.00;100646.41;4995447;28;20034;-59
2022/11/06 10:55:17;;;;;;;8.05;3.97;;;;;;;11.48;100.00;100631.50;4995127;28;20529;-55
2022/11/06 10:58:01;;;;;;;9.52;3.97;;;;;;;11.41;100.00;100623.91;4993850;28;20034;-61
2022/11/06 11:00:26;;;;;;;7.43;3.42;;;;;;;11.50;100.00;100631.44;4995350;28;20092;-56
2022/11/06 11:02:55;;;;;;;9.45;2.95;;;;;;;11.45;100.00;100626.34;4995077;28;20030;-56
2022/11/06 11:05:21;;;;;;;7.47;3.25;;;;;;;11.42;100.00;100618.56;4995564;28;20072;-58
2022/11/06 11:07:48;;;;;;;8.88;2.75;;;;;;;11.42;100.00;100612.41;5010025;28;20046;-55
2022/11/06 11:10:39;;;;;;;7.10;3.25;;;;;;;11.40;100.00;100614.25;4993825;28;20034;-59
2022/11/06 11:13:05;;;;;;;8.23;3.17;;;;;;;11.35;100.00;100618.88;4993976;28;20496;-59
2022/11/06 11:15:33;;;;;;;8.82;3.30;;;;;;;11.26;100.00;100607.78;4995331;28;20088;-61
2022/11/06 11:18:10;;;;;;;6.47;2.90;;;;;;;11.26;100.00;100618.31;4977183;28;20053;-56
2022/11/06 11:20:41;;;;;;;8.10;2.78;;;;;;;11.22;100.00;100608.78;4994910;28;20202;-61
2022/11/06 11:23:27;;;;;;;8.88;3.03;;;;;;;11.20;100.00;100617.69;4994489;28;20041;-57
2022/11/06 11:25:54;;;;;;;4.55;2.63;;;;;;;11.18;100.00;100609.81;4994817;28;20502;-57
2022/11/06 11:28:29;;;;;;;8.60;2.58;;;;;;;11.15;100.00;100606.44;4994825;28;20409;-59
2022/11/06 11:31:12;;;;;;;9.63;2.65;;;;;;;11.11;100.00;100602.22;4993545;28;20140;-59
2022/11/06 11:33:39;;;;;;;5.25;2.42;;;;;;;11.10;100.00;100593.44;4993408;28;20038;-59
2022/11/06 11:36:06;;;;;;;9.15;3.03;;;;;;;11.03;100.00;100578.78;4993251;28;20030;-57